sensor_id;sensor_type;location;lat;lon;timestamp;pressure;altitude;pressure_sealevel;temperature;humidity
18527;BME280;9393;42.158;24.748;2022-12-18T00:02:21;100180.22;;;11.61;100.00
18527;BME280;9393;42.158;24.748;2022-12-18T00:05:25;100169.28;;;11.77;100.00
18527;BME280;9393;42.158;24.748;2022-12-18T00:08:31;100176.16;;;11.78;100.00
18527;BME280;9393;42.158;24.748;2022-12-18T00:11:34;100183.63;;;11.82;100.00
18527;BME280;9393;42.158;24.748;2022-12-18T00:14:38;100198.38;;;12.02;100.00
18527;BME280;9393;42.158;24.748;2022-12-18T00:17:42;100204.69;;;12.00;100.00
18527;BME280;9393;42.158;24.748;2022-12-18T00:20:46;100211.00;;;11.97;100.00
18527;BME280;9393;42.158;24.748;2022-12-18T00:23:52;100222.41;;;11.96;100.00
18527;BME280;9393;42.158;24.748;2022-12-18T00:26:56;100232.75;;;11.88;100.00
18527;BME280;9393;42.158;24.748;2022-12-18T00:30:00;100227.59;;;11.77;100.00
18527;BME280;9393;42.158;24.748;2022-12-18T00:33:04;100228.19;;;11.90;100.00
18527;BME280;9393;42.158;24.748;2022-12-18T00:36:11;100230.13;;;11.88;100.00
18527;BME280;9393;42.158;24.748;2022-12-18T00:39:17;100233.88;;;12.05;100.00
18527;BME280;9393;42.158;24.748;2022-12-18T00:42:20;100233.47;;;12.09;100.00
18527;BME280;9393;42.158;24.748;2022-12-18T00:45:41;100236.09;;;12.09;100.00
18527;BME280;9393;42.158;24.748;2022-12-18T00:48:46;100250.81;;;12.10;100.00
18527;BME280;9393;42.158;24.748;2022-12-18T00:51:50;100260.41;;;12.00;100.00
18527;BME280;9393;42.158;24.748;2022-12-18T00:54:58;100248.50;;;11.77;100.00
18527;BME280;9393;42.158;24.748;2022-12-18T00:58:07;100263.28;;;11.67;100.00
18527;BME280;9393;42.158;24.748;2022-12-18T01:01:11;100254.34;;;11.70;100.00
18527;BME280;9393;42.158;24.748;2022-12-18T01:04:16;100249.59;;;11.75;100.00
18527;BME280;9393;42.158;24.748;2022-12-18T01:07:20;100248.41;;;11.58;100.00
18527;BME280;9393;42.158;24.748;2022-12-18T01:10:25;100257.72;;;11.51;100.00
18527;BME280;9393;42.158;24.748;2022-12-18T01:13:31;100257.53;;;11.43;100.00
18527;BME280;9393;42.158;24.748;2022-12-18T01:16:36;100252.56;;;11.40;100.00
18527;BME280;9393;42.158;24.748;2022-12-18T01:19:40;100244.19;;;11.36;100.00
18527;BME280;9393;42.158;24.748;2022-12-18T01:22:45;100247.41;;;11.29;100.00
18527;BME280;9393;42.158;24.748;2022-12-18T01:25:50;100254.41;;;11.49;100.00
18527;BME280;9393;42.158;24.748;2022-12-18T01:28:54;100253.63;;;11.58;100.00
18527;BME280;9393;42.158;24.748;2022-12-18T01:31:58;100257.78;;;11.60;100.00
18527;BME280;9393;42.158;24.748;2022-12-18T01:35:05;100249.41;;;11.66;100.00
18527;BME280;9393;42.158;24.748;2022-12-18T01:38:09;100243.22;;;11.68;100.00
18527;BME280;9393;42.158;24.748;2022-12-18T01:41:18;100254.34;;;11.70;100.00
18527;BME280;9393;42.158;24.748;2022-12-18T01:44:58;100254.03;;;11.84;100.00
18527;BME280;9393;42.158;24.748;2022-12-18T01:48:04;100254.69;;;11.76;100.00
18527;BME280;9393;42.158;24.748;2022-12-18T01:51:11;100248.97;;;11.92;100.00
18527;BME280;9393;42.158;24.748;2022-12-18T01:54:16;100251.31;;;11.95;100.00
18527;BME280;9393;42.158;24.748;2022-12-18T01:57:22;100251.88;;;11.98;100.00
18527;BME280;9393;42.158;24.748;2022-12-18T02:00:27;100256.41;;;11.96;100.00
18527;BME280;9393;42.158;24.748;2022-12-18T02:03:31;100260.13;;;11.94;100.00
18527;BME280;9393;42.158;24.748;2022-12-18T02:06:39;100269.59;;;11.85;100.00
18527;BME280;9393;42.158;24.748;2022-12-18T02:09:47;100264.06;;;11.79;100.00
18527;BME280;9393;42.158;24.748;2022-12-18T02:12:57;100273.75;;;11.67;100.00
18527;BME280;9393;42.158;24.748;2022-12-18T02:16:07;100273.47;;;11.70;100.00
18527;BME280;9393;42.158;24.748;2022-12-18T02:19:27;100281.69;;;11.65;100.00
18527;BME280;9393;42.158;24.748;2022-12-18T02:22:44;100280.25;;;11.52;100.00
18527;BME280;9393;42.158;24.748;2022-12-18T02:26:04;100280.91;;;11.65;100.00
18527;BME280;9393;42.158;24.748;2022-12-18T02:29:13;100283.34;;;11.87;100.00
18527;BME280;9393;42.158;24.748;2022-12-18T02:32:24;100288.16;;;11.82;100.00
18527;BME280;9393;42.158;24.748;2022-12-18T02:35:30;100289.53;;;11.86;100.00
18527;BME280;9393;42.158;24.748;2022-12-18T02:38:36;100278.03;;;11.98;100.00
18527;BME280;9393;42.158;24.748;2022-12-18T02:41:47;100277.31;;;11.96;100.00
18527;BME280;9393;42.158;24.748;2022-12-18T02:44:56;100277.28;;;11.87;100.00
18527;BME280;9393;42.158;24.748;2022-12-18T02:48:01;100276.03;;;11.81;100.00
18527;BME280;9393;42.158;24.748;2022-12-18T02:51:12;100270.28;;;11.87;100.00
18527;BME280;9393;42.158;24.748;2022-12-18T02:54:36;100272.31;;;11.84;100.00
18527;BME280;9393;42.158;24.748;2022-12-18T02:57:46;100272.47;;;11.82;100.00
18527;BME280;9393;42.158;24.748;2022-12-18T03:01:01;100282.22;;;11.80;100.00
18527;BME280;9393;42.158;24.748;2022-12-18T03:04:11;100281.00;;;11.84;100.00
18527;BME280;9393;42.158;24.748;2022-12-18T03:07:20;100280.81;;;11.76;100.00
18527;BME280;9393;42.158;24.748;2022-12-18T03:10:32;100293.69;;;11.89;100.00
18527;BME280;9393;42.158;24.748;2022-12-18T03:13:42;100290.06;;;11.80;100.00
18527;BME280;9393;42.158;24.748;2022-12-18T03:16:50;100288.84;;;11.84;100.00
18527;BME280;9393;42.158;24.748;2022-12-18T03:20:00;100287.31;;;11.82;100.00
18527;BME280;9393;42.158;24.748;2022-12-18T03:23:09;100289.16;;;11.70;100.00
18527;BME280;9393;42.158;24.748;2022-12-18T03:26:23;100296.00;;;11.82;100.00
18527;BME280;9393;42.158;24.748;2022-12-18T03:29:36;100293.81;;;11.66;100.00
18527;BME280;9393;42.158;24.748;2022-12-18T03:32:47;100306.00;;;11.77;100.00
18527;BME280;9393;42.158;24.748;2022-12-18T03:35:58;100304.63;;;11.83;100.00
18527;BME280;9393;42.158;24.748;2022-12-18T03:39:02;100309.75;;;11.84;100.00
18527;BME280;9393;42.158;24.748;2022-12-18T03:42:14;100319.38;;;11.84;100.00
18527;BME280;9393;42.158;24.748;2022-12-18T03:45:29;100322.63;;;11.76;100.00
18527;BME280;9393;42.158;24.748;2022-12-18T03:48:42;100339.03;;;11.78;100.00
18527;BME280;9393;42.158;24.748;2022-12-18T03:51:55;100341.56;;;11.69;100.00
18527;BME280;9393;42.158;24.748;2022-12-18T03:55:03;100341.50;;;11.80;100.00
18527;BME280;9393;42.158;24.748;2022-12-18T03:58:11;100339.31;;;11.64;100.00
18527;BME280;9393;42.158;24.748;2022-12-18T04:01:46;100346.63;;;11.70;100.00
18527;BME280;9393;42.158;24.748;2022-12-18T04:04:52;100354.44;;;11.60;100.00
18527;BME280;9393;42.158;24.748;2022-12-18T04:07:57;100351.94;;;11.59;100.00
18527;BME280;9393;42.158;24.748;2022-12-18T04:11:03;100357.72;;;11.62;100.00
18527;BME280;9393;42.158;24.748;2022-12-18T04:14:07;100355.91;;;11.53;100.00
18527;BME280;9393;42.158;24.748;2022-12-18T04:17:20;100360.09;;;11.65;100.00
18527;BME280;9393;42.158;24.748;2022-12-18T04:20:25;100366.09;;;11.56;100.00
18527;BME280;9393;42.158;24.748;2022-12-18T04:23:29;100355.75;;;11.55;100.00
18527;BME280;9393;42.158;24.748;2022-12-18T04:26:34;100364.69;;;11.52;100.00
18527;BME280;9393;42.158;24.748;2022-12-18T04:29:57;100374.81;;;11.46;100.00
18527;BME280;9393;42.158;24.748;2022-12-18T04:33:03;100361.19;;;11.42;100.00
18527;BME280;9393;42.158;24.748;2022-12-18T04:36:07;100371.09;;;11.48;100.00
18527;BME280;9393;42.158;24.748;2022-12-18T04:39:12;100374.56;;;11.49;100.00
18527;BME280;9393;42.158;24.748;2022-12-18T04:42:16;100362.78;;;11.34;100.00
18527;BME280;9393;42.158;24.748;2022-12-18T04:45:20;100379.25;;;11.13;100.00
18527;BME280;9393;42.158;24.748;2022-12-18T04:48:25;100386.69;;;11.18;100.00
18527;BME280;9393;42.158;24.748;2022-12-18T04:51:29;100385.59;;;11.21;100.00
18527;BME280;9393;42.158;24.748;2022-12-18T04:54:32;100384.22;;;11.17;100.00
18527;BME280;9393;42.158;24.748;2022-12-18T04:57:36;100397.56;;;11.02;99.90
18527;BME280;9393;42.158;24.748;2022-12-18T05:00:40;100396.97;;;10.99;99.60
18527;BME280;9393;42.158;24.748;2022-12-18T05:03:45;100406.75;;;10.86;99.25
18527;BME280;9393;42.158;24.748;2022-12-18T05:06:49;100416.81;;;10.79;99.55
18527;BME280;9393;42.158;24.748;2022-12-18T05:09:52;100427.25;;;10.79;98.69
18527;BME280;9393;42.158;24.748;2022-12-18T05:12:56;100424.19;;;10.74;98.12
18527;BME280;9393;42.158;24.748;2022-12-18T05:16:04;100433.31;;;10.80;97.89
18527;BME280;9393;42.158;24.748;2022-12-18T05:19:09;100439.25;;;10.71;98.08
18527;BME280;9393;42.158;24.748;2022-12-18T05:22:14;100451.72;;;10.67;97.58
18527;BME280;9393;42.158;24.748;2022-12-18T05:25:18;100447.09;;;10.59;98.07
18527;BME280;9393;42.158;24.748;2022-12-18T05:28:23;100453.38;;;10.68;97.03
18527;BME280;9393;42.158;24.748;2022-12-18T05:31:27;100468.66;;;10.84;96.79
18527;BME280;9393;42.158;24.748;2022-12-18T05:34:39;100477.41;;;10.83;97.39
18527;BME280;9393;42.158;24.748;2022-12-18T05:37:43;100486.09;;;10.83;97.21
18527;BME280;9393;42.158;24.748;2022-12-18T05:40:47;100483.72;;;10.80;96.76
18527;BME280;9393;42.158;24.748;2022-12-18T05:43:52;100478.16;;;10.74;95.79
18527;BME280;9393;42.158;24.748;2022-12-18T05:46:55;100486.09;;;10.83;96.15
18527;BME280;9393;42.158;24.748;2022-12-18T05:50:01;100494.28;;;10.68;95.69
18527;BME280;9393;42.158;24.748;2022-12-18T05:53:05;100500.44;;;10.89;95.20
18527;BME280;9393;42.158;24.748;2022-12-18T05:56:11;100499.47;;;10.90;94.12
18527;BME280;9393;42.158;24.748;2022-12-18T05:59:15;100501.03;;;10.81;94.03
18527;BME280;9393;42.158;24.748;2022-12-18T06:02:18;100509.94;;;10.79;93.37
18527;BME280;9393;42.158;24.748;2022-12-18T06:05:25;100513.84;;;10.84;92.62
18527;BME280;9393;42.158;24.748;2022-12-18T06:08:29;100517.53;;;10.82;92.38
18527;BME280;9393;42.158;24.748;2022-12-18T06:11:33;100512.19;;;10.83;92.81
18527;BME280;9393;42.158;24.748;2022-12-18T06:14:37;100511.81;;;10.77;94.04
18527;BME280;9393;42.158;24.748;2022-12-18T06:17:41;100522.84;;;10.91;93.76
18527;BME280;9393;42.158;24.748;2022-12-18T06:20:54;100524.97;;;10.97;93.24
18527;BME280;9393;42.158;24.748;2022-12-18T06:23:59;100532.22;;;10.94;93.41
18527;BME280;9393;42.158;24.748;2022-12-18T06:27:03;100540.53;;;10.99;93.34
18527;BME280;9393;42.158;24.748;2022-12-18T06:30:08;100550.00;;;11.00;92.50
18527;BME280;9393;42.158;24.748;2022-12-18T06:33:13;100545.03;;;10.97;91.45
18527;BME280;9393;42.158;24.748;2022-12-18T06:36:18;100556.78;;;10.91;91.57
18527;BME280;9393;42.158;24.748;2022-12-18T06:39:23;100566.16;;;11.05;91.06
18527;BME280;9393;42.158;24.748;2022-12-18T06:42:28;100569.00;;;10.91;90.69
18527;BME280;9393;42.158;24.748;2022-12-18T06:45:32;100582.88;;;10.91;91.43
18527;BME280;9393;42.158;24.748;2022-12-18T06:48:36;100577.53;;;11.04;90.19
18527;BME280;9393;42.158;24.748;2022-12-18T06:51:42;100585.94;;;10.96;89.99
18527;BME280;9393;42.158;24.748;2022-12-18T06:54:46;100596.53;;;10.95;89.82
18527;BME280;9393;42.158;24.748;2022-12-18T06:57:50;100592.63;;;10.89;89.09
18527;BME280;9393;42.158;24.748;2022-12-18T07:00:59;100602.69;;;10.94;89.00
18527;BME280;9393;42.158;24.748;2022-12-18T07:04:03;100603.53;;;10.94;89.65
18527;BME280;9393;42.158;24.748;2022-12-18T07:07:09;100616.44;;;11.07;89.51
18527;BME280;9393;42.158;24.748;2022-12-18T07:10:13;100612.78;;;11.09;90.17
18527;BME280;9393;42.158;24.748;2022-12-18T07:13:17;100612.06;;;11.19;90.01
18527;BME280;9393;42.158;24.748;2022-12-18T07:16:21;100613.72;;;11.20;90.06
18527;BME280;9393;42.158;24.748;2022-12-18T07:19:27;100616.94;;;11.12;90.21
18527;BME280;9393;42.158;24.748;2022-12-18T07:22:33;100613.59;;;11.21;89.68
18527;BME280;9393;42.158;24.748;2022-12-18T07:25:37;100622.50;;;11.19;88.92
18527;BME280;9393;42.158;24.748;2022-12-18T07:28:42;100631.41;;;11.16;88.65
18527;BME280;9393;42.158;24.748;2022-12-18T07:31:46;100622.16;;;11.01;89.28
18527;BME280;9393;42.158;24.748;2022-12-18T07:34:50;100635.31;;;11.10;88.57
18527;BME280;9393;42.158;24.748;2022-12-18T07:37:55;100624.06;;;11.10;87.71
18527;BME280;9393;42.158;24.748;2022-12-18T07:41:00;100625.59;;;11.01;87.51
18527;BME280;9393;42.158;24.748;2022-12-18T07:44:09;100634.59;;;10.97;88.24
18527;BME280;9393;42.158;24.748;2022-12-18T07:47:13;100642.44;;;11.08;87.27
18527;BME280;9393;42.158;24.748;2022-12-18T07:50:17;100650.19;;;11.10;87.61
18527;BME280;9393;42.158;24.748;2022-12-18T07:53:22;100638.41;;;11.04;87.35
18527;BME280;9393;42.158;24.748;2022-12-18T07:56:26;100655.75;;;11.17;87.09
18527;BME280;9393;42.158;24.748;2022-12-18T07:59:32;100668.19;;;11.24;87.25
18527;BME280;9393;42.158;24.748;2022-12-18T08:02:36;100668.22;;;11.13;85.98
18527;BME280;9393;42.158;24.748;2022-12-18T08:05:40;100665.81;;;11.21;86.89
18527;BME280;9393;42.158;24.748;2022-12-18T08:08:45;100673.06;;;11.18;86.08
18527;BME280;9393;42.158;24.748;2022-12-18T08:11:49;100679.34;;;11.15;85.92
18527;BME280;9393;42.158;24.748;2022-12-18T08:14:53;100681.38;;;11.11;86.02
18527;BME280;9393;42.158;24.748;2022-12-18T08:17:57;100684.81;;;11.12;85.68
18527;BME280;9393;42.158;24.748;2022-12-18T08:21:08;100682.22;;;11.23;84.68
18527;BME280;9393;42.158;24.748;2022-12-18T08:24:14;100694.78;;;11.18;84.97
18527;BME280;9393;42.158;24.748;2022-12-18T08:27:18;100696.06;;;11.01;85.22
18527;BME280;9393;42.158;24.748;2022-12-18T08:30:31;100693.47;;;11.12;85.15
18527;BME280;9393;42.158;24.748;2022-12-18T08:33:35;100693.72;;;11.21;83.99
18527;BME280;9393;42.158;24.748;2022-12-18T08:36:40;100693.97;;;11.29;84.22
18527;BME280;9393;42.158;24.748;2022-12-18T08:39:45;100695.75;;;11.28;83.91
18527;BME280;9393;42.158;24.748;2022-12-18T08:42:49;100695.63;;;11.30;84.23
18527;BME280;9393;42.158;24.748;2022-12-18T08:46:10;100693.13;;;11.39;83.74
18527;BME280;9393;42.158;24.748;2022-12-18T08:49:15;100685.91;;;11.43;83.83
18527;BME280;9393;42.158;24.748;2022-12-18T08:52:18;100689.00;;;11.48;82.90
18527;BME280;9393;42.158;24.748;2022-12-18T08:55:24;100684.47;;;11.50;82.97
18527;BME280;9393;42.158;24.748;2022-12-18T08:58:28;100683.75;;;11.59;82.85
18527;BME280;9393;42.158;24.748;2022-12-18T09:01:32;100686.84;;;11.64;82.90
18527;BME280;9393;42.158;24.748;2022-12-18T09:04:37;100684.50;;;11.72;82.21
18527;BME280;9393;42.158;24.748;2022-12-18T09:07:42;100682.31;;;11.55;81.91
18527;BME280;9393;42.158;24.748;2022-12-18T09:10:49;100691.13;;;11.54;82.08
18527;BME280;9393;42.158;24.748;2022-12-18T09:13:53;100691.47;;;11.60;81.75
18527;BME280;9393;42.158;24.748;2022-12-18T09:16:58;100683.72;;;11.70;81.22
18527;BME280;9393;42.158;24.748;2022-12-18T09:20:02;100690.06;;;11.79;80.87
18527;BME280;9393;42.158;24.748;2022-12-18T09:23:06;100678.63;;;11.69;80.22
18527;BME280;9393;42.158;24.748;2022-12-18T09:26:12;100691.94;;;11.77;80.75
18527;BME280;9393;42.158;24.748;2022-12-18T09:29:16;100691.94;;;11.54;80.82
18527;BME280;9393;42.158;24.748;2022-12-18T09:32:20;100684.66;;;11.69;80.33
18527;BME280;9393;42.158;24.748;2022-12-18T09:35:24;100689.56;;;11.62;80.76
18527;BME280;9393;42.158;24.748;2022-12-18T09:38:28;100688.03;;;11.60;80.72
18527;BME280;9393;42.158;24.748;2022-12-18T09:41:43;100694.66;;;11.64;80.72
18527;BME280;9393;42.158;24.748;2022-12-18T09:44:50;100693.13;;;11.73;80.31
18527;BME280;9393;42.158;24.748;2022-12-18T09:47:54;100689.69;;;11.61;80.69
18527;BME280;9393;42.158;24.748;2022-12-18T09:51:02;100685.28;;;11.73;79.99
18527;BME280;9393;42.158;24.748;2022-12-18T09:54:11;100687.31;;;11.58;80.60
18527;BME280;9393;42.158;24.748;2022-12-18T09:57:20;100690.16;;;11.66;80.62
18527;BME280;9393;42.158;24.748;2022-12-18T10:00:25;100692.53;;;11.80;80.15
18527;BME280;9393;42.158;24.748;2022-12-18T10:03:29;100691.44;;;11.83;79.79
18527;BME280;9393;42.158;24.748;2022-12-18T10:06:37;100689.81;;;11.71;79.63
18527;BME280;9393;42.158;24.748;2022-12-18T10:09:48;100684.81;;;11.56;79.79
18527;BME280;9393;42.158;24.748;2022-12-18T10:13:04;100686.00;;;11.63;80.02
18527;BME280;9393;42.158;24.748;2022-12-18T10:16:12;100686.84;;;11.64;79.91
18527;BME280;9393;42.158;24.748;2022-12-18T10:19:30;100689.72;;;11.72;80.05
18527;BME280;9393;42.158;24.748;2022-12-18T10:22:46;100687.56;;;11.77;79.65
18527;BME280;9393;42.158;24.748;2022-12-18T10:26:02;100689.19;;;11.56;78.80
18527;BME280;9393;42.158;24.748;2022-12-18T10:29:12;100690.97;;;11.66;78.29
18527;BME280;9393;42.158;24.748;2022-12-18T10:32:17;100687.91;;;11.84;78.13
18527;BME280;9393;42.158;24.748;2022-12-18T10:35:24;100697.03;;;11.67;79.02
18527;BME280;9393;42.158;24.748;2022-12-18T10:38:30;100698.00;;;11.77;78.79
18527;BME280;9393;42.158;24.748;2022-12-18T10:41:34;100697.50;;;11.83;77.60
18527;BME280;9393;42.158;24.748;2022-12-18T10:44:40;100699.41;;;11.70;77.23
18527;BME280;9393;42.158;24.748;2022-12-18T10:47:48;100699.78;;;11.54;78.18
18527;BME280;9393;42.158;24.748;2022-12-18T10:50:52;100713.56;;;11.68;77.35
18527;BME280;9393;42.158;24.748;2022-12-18T10:54:17;100716.88;;;11.58;77.79
18527;BME280;9393;42.158;24.748;2022-12-18T10:57:33;100712.03;;;11.65;78.08
18527;BME280;9393;42.158;24.748;2022-12-18T11:00:39;100717.00;;;11.79;77.92
18527;BME280;9393;42.158;24.748;2022-12-18T11:03:45;100725.09;;;11.65;78.71
18527;BME280;9393;42.158;24.748;2022-12-18T11:06:56;100724.25;;;11.53;79.55
18527;BME280;9393;42.158;24.748;2022-12-18T11:10:00;100729.13;;;11.47;79.54
18527;BME280;9393;42.158;24.748;2022-12-18T11:13:15;100721.75;;;11.52;79.57
18527;BME280;9393;42.158;24.748;2022-12-18T11:16:21;100725.31;;;11.29;80.85
18527;BME280;9393;42.158;24.748;2022-12-18T11:19:32;100730.88;;;11.24;81.63
18527;BME280;9393;42.158;24.748;2022-12-18T11:22:37;100733.81;;;11.08;84.67
18527;BME280;9393;42.158;24.748;2022-12-18T11:25:51;100744.59;;;11.04;86.91
18527;BME280;9393;42.158;24.748;2022-12-18T11:29:08;100746.41;;;11.14;88.28
18527;BME280;9393;42.158;24.748;2022-12-18T11:32:27;100748.06;;;11.15;89.46
18527;BME280;9393;42.158;24.748;2022-12-18T11:35:41;100739.94;;;10.96;91.87
18527;BME280;9393;42.158;24.748;2022-12-18T11:38:49;100741.28;;;11.02;92.22
18527;BME280;9393;42.158;24.748;2022-12-18T11:42:00;100749.09;;;10.91;94.86
18527;BME280;9393;42.158;24.748;2022-12-18T11:45:28;100740.66;;;10.87;94.44
18527;BME280;9393;42.158;24.748;2022-12-18T11:48:41;100745.41;;;10.82;94.85
18527;BME280;9393;42.158;24.748;2022-12-18T11:51:51;100752.25;;;10.83;94.17
18527;BME280;9393;42.158;24.748;2022-12-18T11:55:00;100748.03;;;11.04;93.78
18527;BME280;9393;42.158;24.748;2022-12-18T11:58:12;100749.50;;;11.20;93.22
18527;BME280;9393;42.158;24.748;2022-12-18T12:01:29;100747.81;;;11.07;93.34
18527;BME280;9393;42.158;24.748;2022-12-18T12:04:54;100753.16;;;11.06;91.86
18527;BME280;9393;42.158;24.748;2022-12-18T12:08:08;100752.94;;;11.09;92.20
18527;BME280;9393;42.158;24.748;2022-12-18T12:11:21;100745.91;;;10.98;88.65
18527;BME280;9393;42.158;24.748;2022-12-18T12:14:44;100752.72;;;11.23;89.77
18527;BME280;9393;42.158;24.748;2022-12-18T12:17:55;100751.06;;;11.22;89.37
18527;BME280;9393;42.158;24.748;2022-12-18T12:21:09;100753.31;;;11.38;87.09
18527;BME280;9393;42.158;24.748;2022-12-18T12:24:27;100745.72;;;11.35;86.74
18527;BME280;9393;42.158;24.748;2022-12-18T12:27:43;100751.06;;;11.33;86.44
18527;BME280;9393;42.158;24.748;2022-12-18T12:30:58;100758.56;;;11.27;85.22
18527;BME280;9393;42.158;24.748;2022-12-18T12:34:11;100761.13;;;11.15;84.13
18527;BME280;9393;42.158;24.748;2022-12-18T12:37:27;100769.69;;;11.29;84.37
18527;BME280;9393;42.158;24.748;2022-12-18T12:40:41;100777.13;;;11.11;84.83
18527;BME280;9393;42.158;24.748;2022-12-18T12:44:06;100767.25;;;11.03;84.42
18527;BME280;9393;42.158;24.748;2022-12-18T12:47:14;100780.53;;;11.00;84.71
18527;BME280;9393;42.158;24.748;2022-12-18T12:50:21;100784.31;;;10.85;83.69
18527;BME280;9393;42.158;24.748;2022-12-18T12:53:33;100791.69;;;10.91;82.14
18527;BME280;9393;42.158;24.748;2022-12-18T12:56:48;100805.78;;;10.89;81.37
18527;BME280;9393;42.158;24.748;2022-12-18T13:00:00;100809.94;;;10.91;82.18
18527;BME280;9393;42.158;24.748;2022-12-18T13:03:12;100806.81;;;10.86;80.94
18527;BME280;9393;42.158;24.748;2022-12-18T13:06:28;100810.72;;;10.81;81.72
18527;BME280;9393;42.158;24.748;2022-12-18T13:10:22;100826.69;;;10.89;82.84
18527;BME280;9393;42.158;24.748;2022-12-18T13:13:51;100812.47;;;11.04;83.43
18527;BME280;9393;42.158;24.748;2022-12-18T13:17:30;100826.06;;;11.20;81.13
18527;BME280;9393;42.158;24.748;2022-12-18T13:20:38;100834.47;;;11.12;81.33
18527;BME280;9393;42.158;24.748;2022-12-18T13:23:42;100843.53;;;11.20;81.48
18527;BME280;9393;42.158;24.748;2022-12-18T13:26:49;100837.38;;;11.32;81.42
18527;BME280;9393;42.158;24.748;2022-12-18T13:29:53;100831.66;;;11.38;81.97
18527;BME280;9393;42.158;24.748;2022-12-18T13:33:38;100838.91;;;11.34;81.80
18527;BME280;9393;42.158;24.748;2022-12-18T13:37:39;100834.19;;;11.39;81.05
18527;BME280;9393;42.158;24.748;2022-12-18T13:40:54;100842.81;;;11.29;80.40
18527;BME280;9393;42.158;24.748;2022-12-18T13:44:11;100840.25;;;11.40;78.29
18527;BME280;9393;42.158;24.748;2022-12-18T13:47:26;100846.13;;;11.20;77.08
18527;BME280;9393;42.158;24.748;2022-12-18T13:50:33;100851.72;;;11.26;76.88
18527;BME280;9393;42.158;24.748;2022-12-18T13:53:42;100849.22;;;11.25;77.55
18527;BME280;9393;42.158;24.748;2022-12-18T13:56:48;100858.38;;;11.30;78.03
18527;BME280;9393;42.158;24.748;2022-12-18T13:59:53;100856.00;;;11.38;78.24
18527;BME280;9393;42.158;24.748;2022-12-18T14:02:58;100866.59;;;11.37;79.10
18527;BME280;9393;42.158;24.748;2022-12-18T14:06:05;100871.59;;;11.40;79.67
18527;BME280;9393;42.158;24.748;2022-12-18T14:09:14;100875.69;;;11.20;80.90
18527;BME280;9393;42.158;24.748;2022-12-18T14:12:24;100887.16;;;11.18;81.03
18527;BME280;9393;42.158;24.748;2022-12-18T14:15:50;100895.28;;;11.26;81.97
18527;BME280;9393;42.158;24.748;2022-12-18T14:18:57;100896.78;;;11.17;79.51
18527;BME280;9393;42.158;24.748;2022-12-18T14:22:18;100907.44;;;11.14;79.37
18527;BME280;9393;42.158;24.748;2022-12-18T14:25:24;100902.13;;;10.92;79.76
18527;BME280;9393;42.158;24.748;2022-12-18T14:28:28;100903.75;;;10.82;78.69
18527;BME280;9393;42.158;24.748;2022-12-18T14:31:34;100908.63;;;10.86;78.89
18527;BME280;9393;42.158;24.748;2022-12-18T14:34:38;100910.84;;;10.80;78.77
18527;BME280;9393;42.158;24.748;2022-12-18T14:37:42;100919.19;;;10.85;78.48
18527;BME280;9393;42.158;24.748;2022-12-18T14:40:46;100916.25;;;10.89;78.45
18527;BME280;9393;42.158;24.748;2022-12-18T14:43:51;100920.28;;;10.93;78.59
18527;BME280;9393;42.158;24.748;2022-12-18T14:46:57;100922.56;;;10.74;78.35
18527;BME280;9393;42.158;24.748;2022-12-18T14:50:01;100924.31;;;10.74;77.69
18527;BME280;9393;42.158;24.748;2022-12-18T14:53:05;100921.41;;;10.78;76.57
18527;BME280;9393;42.158;24.748;2022-12-18T14:56:16;100922.69;;;10.60;76.35
18527;BME280;9393;42.158;24.748;2022-12-18T14:59:22;100931.53;;;10.70;76.32
18527;BME280;9393;42.158;24.748;2022-12-18T15:02:28;100931.13;;;10.63;76.72
18527;BME280;9393;42.158;24.748;2022-12-18T15:05:32;100932.91;;;10.63;77.01
18527;BME280;9393;42.158;24.748;2022-12-18T15:08:37;100941.63;;;10.38;75.66
18527;BME280;9393;42.158;24.748;2022-12-18T15:11:45;100947.72;;;10.62;74.70
18527;BME280;9393;42.158;24.748;2022-12-18T15:14:50;100953.34;;;10.69;76.21
18527;BME280;9393;42.158;24.748;2022-12-18T15:18:01;100951.69;;;10.68;75.94
18527;BME280;9393;42.158;24.748;2022-12-18T15:21:09;100956.25;;;10.77;75.51
18527;BME280;9393;42.158;24.748;2022-12-18T15:24:17;100964.13;;;10.64;74.00
18527;BME280;9393;42.158;24.748;2022-12-18T15:27:23;100972.91;;;10.51;74.39
18527;BME280;9393;42.158;24.748;2022-12-18T15:30:28;100958.47;;;10.71;74.40
18527;BME280;9393;42.158;24.748;2022-12-18T15:33:37;100971.06;;;10.89;75.23
18527;BME280;9393;42.158;24.748;2022-12-18T15:36:41;100979.97;;;10.74;75.01
18527;BME280;9393;42.158;24.748;2022-12-18T15:39:45;100988.72;;;10.73;76.04
18527;BME280;9393;42.158;24.748;2022-12-18T15:42:52;101000.19;;;10.83;76.23
18527;BME280;9393;42.158;24.748;2022-12-18T15:46:16;101016.59;;;10.73;78.06
18527;BME280;9393;42.158;24.748;2022-12-18T15:49:22;101013.19;;;10.47;82.15
18527;BME280;9393;42.158;24.748;2022-12-18T15:52:26;101019.53;;;10.55;85.33
18527;BME280;9393;42.158;24.748;2022-12-18T15:55:32;101027.53;;;10.02;90.89
18527;BME280;9393;42.158;24.748;2022-12-18T15:59:02;101027.66;;;10.13;93.34
18527;BME280;9393;42.158;24.748;2022-12-18T16:02:16;101037.19;;;10.27;94.20
18527;BME280;9393;42.158;24.748;2022-12-18T16:05:23;101042.44;;;10.12;95.31
18527;BME280;9393;42.158;24.748;2022-12-18T16:08:27;101049.34;;;10.13;96.48
18527;BME280;9393;42.158;24.748;2022-12-18T16:11:32;101043.78;;;9.93;99.88
18527;BME280;9393;42.158;24.748;2022-12-18T16:14:43;101044.13;;;10.13;99.73
18527;BME280;9393;42.158;24.748;2022-12-18T16:17:47;101042.78;;;10.21;100.00
18527;BME280;9393;42.158;24.748;2022-12-18T16:20:52;101043.22;;;10.27;99.55
18527;BME280;9393;42.158;24.748;2022-12-18T16:23:56;101051.69;;;10.43;96.76